Terminal Aerodrome Forecast
Issued by NWS

Home | Current Version | Previous Version | Text Only | Print | Product List | Glossary On
Versions: 1 2 3 4 5 6 7 8 9 10 11 12 13 14 15 16 17 18 19 20 21 22 23 24 25 26 27 28 29 30 31 32 33 34
835
FTUS41 KPHI 062322
TAFPNE
TAF
KPNE 062322Z 0700/0724 08010KT 2SM -DZ BR OVC006
      TEMPO 0701/0705 1SM BR OVC004
     FM070500 05008KT 1SM -DZ BR OVC004
     FM070800 06007KT 1/2SM FG OVC003
     FM071200 06005KT 3SM BR OVC009
     FM071700 VRB05KT P6SM BKN025
     FM072100 VRB04KT P6SM BKN035=

USA.gov is the U.S. government's official web portal to all federal, state and local government web resources and services.